createdAt,value
2019-02-23T00:06:53.324Z,22.75
2019-02-23T00:16:59.264Z,22.87
2019-02-23T00:27:05.318Z,22.87
2019-02-23T00:37:11.163Z,22.75
2019-02-23T00:47:16.196Z,22.87
2019-02-23T00:57:22.070Z,22.87
2019-02-23T01:07:27.974Z,22.81
2019-02-23T01:17:33.795Z,22.94
2019-02-23T01:27:39.735Z,22.87
2019-02-23T01:37:44.806Z,22.75
2019-02-23T01:47:50.730Z,22.75
2019-02-23T01:57:56.560Z,22.75
2019-02-23T02:08:02.450Z,22.81
2019-02-23T02:18:08.307Z,22.75
2019-02-23T02:28:13.368Z,22.75
2019-02-23T02:38:19.037Z,22.75
2019-02-23T02:48:24.857Z,22.75
2019-02-23T02:58:30.840Z,22.75
2019-02-23T03:08:35.787Z,22.69
2019-02-23T03:18:41.818Z,22.62
2019-02-23T03:28:47.644Z,22.75
2019-02-23T03:38:53.495Z,22.75
2019-02-23T03:48:59.396Z,22.69
2019-02-23T03:59:05.289Z,22.62
2019-02-23T04:09:11.042Z,22.56
2019-02-23T04:19:16.943Z,22.69
2019-02-23T04:29:22.840Z,22.69
2019-02-23T04:39:27.801Z,22.56
2019-02-23T04:49:33.474Z,22.56
2019-02-23T04:59:39.269Z,22.44
2019-02-23T05:09:45.106Z,22.62
2019-02-23T05:19:50.958Z,22.50
2019-02-23T05:29:56.809Z,22.56
2019-02-23T05:40:02.630Z,22.62
2019-02-23T05:50:09.506Z,22.62
2019-02-23T06:00:16.449Z,22.56
2019-02-23T06:10:22.344Z,22.62
2019-02-23T06:20:28.273Z,22.62
2019-02-23T06:30:34.198Z,22.56
2019-02-23T06:40:40.210Z,22.56
2019-02-23T06:50:45.253Z,22.62
2019-02-23T07:00:51.000Z,22.69
2019-02-23T07:10:57.041Z,22.62
2019-02-23T07:21:02.980Z,22.56
2019-02-23T07:31:08.888Z,22.69
2019-02-23T07:41:14.801Z,22.62
2019-02-23T07:51:20.559Z,22.62
2019-02-23T08:01:26.415Z,22.50
2019-02-23T08:11:32.151Z,22.62
2019-02-23T08:21:38.024Z,22.69
2019-02-23T08:31:43.963Z,22.69
2019-02-23T08:41:49.730Z,22.87
2019-02-23T08:51:55.587Z,22.81
2019-02-23T09:02:01.506Z,22.94
2019-02-23T09:12:07.327Z,23.00
2019-02-23T09:22:14.168Z,22.94
2019-02-23T09:32:20.083Z,23.12
2019-02-23T09:42:25.966Z,23.31
2019-02-23T09:52:31.865Z,23.31
2019-02-23T10:02:37.700Z,23.44
2019-02-23T10:12:43.586Z,23.31
2019-02-23T10:22:49.421Z,23.25
2019-02-23T10:32:55.285Z,23.25
2019-02-23T10:43:01.140Z,23.19
2019-02-23T10:53:07.112Z,23.12
2019-02-23T11:03:12.234Z,23.12
2019-02-23T11:13:18.013Z,23.12
2019-02-23T11:23:24.030Z,23.12
2019-02-23T11:33:30.849Z,23.12
2019-02-23T11:43:36.721Z,23.44
2019-02-23T11:53:42.766Z,23.44
2019-02-23T12:03:48.596Z,23.50
2019-02-23T12:13:54.523Z,23.31
2019-02-23T12:24:06.051Z,23.69
2019-02-23T12:34:08.143Z,24.50
2019-02-23T12:44:14.066Z,24.31
2019-02-23T12:54:20.021Z,24.12
2019-02-23T13:04:25.989Z,24.25
2019-02-23T13:14:48.656Z,24.50
2019-02-23T13:25:13.825Z,24.44
2019-02-23T13:35:54.166Z,24.37
2019-02-23T13:46:18.057Z,24.25
2019-02-23T13:56:46.595Z,24.31
2019-02-23T14:07:11.810Z,24.37
2019-02-23T14:17:43.505Z,24.25
2019-02-23T14:28:36.157Z,24.19
2019-02-23T14:38:58.586Z,24.12
2019-02-23T14:49:18.112Z,24.37
2019-02-23T14:59:46.142Z,24.25
2019-02-23T15:10:17.711Z,24.44
2019-02-23T15:20:40.231Z,24.31
2019-02-23T15:31:12.649Z,24.25
2019-02-23T15:41:35.004Z,24.19
2019-02-23T15:51:40.960Z,24.00
2019-02-23T16:01:47.777Z,24.00
2019-02-23T16:11:52.819Z,23.94
2019-02-23T16:21:58.580Z,23.81
2019-02-23T16:32:04.503Z,23.69
2019-02-23T16:42:10.361Z,23.94
2019-02-23T16:52:16.188Z,23.75
2019-02-23T17:02:21.948Z,23.75
2019-02-23T17:12:28.101Z,23.81
2019-02-23T17:22:33.954Z,23.94
2019-02-23T17:32:39.836Z,23.75
2019-02-23T17:42:45.693Z,23.75
2019-02-23T17:52:51.612Z,23.81
2019-02-23T18:02:57.435Z,23.75
2019-02-23T18:13:03.553Z,23.69
2019-02-23T18:23:09.622Z,23.75
2019-02-23T18:33:15.639Z,24.00
2019-02-23T18:43:20.715Z,23.75
2019-02-23T18:53:26.723Z,23.81
2019-02-23T19:03:32.831Z,23.87
2019-02-23T19:13:38.676Z,23.50
2019-02-23T19:23:44.573Z,23.62
2019-02-23T19:33:50.474Z,23.62
2019-02-23T19:43:56.759Z,23.56
2019-02-23T19:54:02.723Z,23.50
2019-02-23T20:04:08.702Z,23.50
2019-02-23T20:14:14.752Z,23.44
2019-02-23T20:24:20.885Z,23.38
2019-02-23T20:34:27.000Z,23.50
2019-02-23T20:44:33.163Z,23.31
2019-02-23T20:54:38.745Z,23.31
2019-02-23T21:04:44.598Z,23.38
2019-02-23T21:14:50.577Z,23.31
2019-02-23T21:24:55.665Z,23.31
2019-02-23T21:35:01.414Z,23.12
2019-02-23T21:45:09.955Z,23.06
2019-02-23T21:55:15.816Z,23.19
2019-02-23T22:05:21.780Z,23.19
2019-02-23T22:15:27.894Z,23.19
2019-02-23T22:25:33.898Z,23.06
2019-02-23T22:35:39.793Z,23.06
2019-02-23T22:45:45.710Z,23.00
2019-02-23T22:55:51.880Z,23.00
2019-02-23T23:05:57.018Z,22.81
2019-02-23T23:16:02.874Z,22.94
2019-02-23T23:26:08.783Z,22.81
2019-02-23T23:36:14.713Z,22.69
2019-02-23T23:46:20.494Z,22.81
2019-02-23T23:56:25.557Z,22.62
